Thai Dawn — V7EO6 — position and weather

sailwx.info

Track history (hours):
 
Tides and Currents Weather Stations Pressure Air Temp Water Temp Dewpoint Dewpoint Depression Visibility Wind Speed Wind Dir Waves Ship Positions

Thai Dawn

Last reported at 2017-Nov-29 22:34 UTC. Time now 2017-Dec-14 04:36 UTC.
Position N 45°29' W 073°31'.
Warning: this ship's position is 14 days out of date.

Length 169 m; draft 6.1 m.

Type: Cargo ship. MMSI: 538001841.

Date/timePositionNaut miles runAvg speedWind from/ knotsBaromVisibWave heightAir tempDewpointWater temp
2017-Nov-29 22:34N 45°29' W 073°31'0 3.9
2017-Nov-29 22:30N 45°29' W 073°31'3 5.3
2017-Nov-29 21:57N 45°26' W 073°30'4 2.7
2017-Nov-29 20:34N 45°24' W 073°35'0 4.6
2017-Nov-29 20:29N 45°24' W 073°36'2 4.9
2017-Nov-29 20:00N 45°24' W 073°39'2 4.7
2017-Nov-29 19:30N 45°25' W 073°42'5 9.7
2017-Nov-29 19:00N 45°23' W 073°49'510.6
2017-Nov-29 18:30N 45°20' W 073°55'1 1.5
2017-Nov-29 18:00N 45°19' W 073°55'1 1.6
2017-Nov-29 17:30N 45°18' W 073°56'0 0.3
2017-Nov-29 17:00N 45°18' W 073°56'2 3.5
2017-Nov-29 16:30N 45°16' W 073°57'5 9.8
2017-Nov-29 16:00N 45°13' W 074°02'510.9
2017-Nov-29 15:30N 45°14' W 074°10'  
2017-Nov-26 10:21N 45°29' W 083°18'512.5
2017-Nov-26 09:57N 45°33' W 083°23'612.6
2017-Nov-26 09:29N 45°37' W 083°28'812.5
2017-Nov-26 08:52N 45°43' W 083°36'  
Track history (hours):
 
Tides and Currents Weather Stations Pressure Air Temp Water Temp Dewpoint Dewpoint Depression Visibility Wind Speed Wind Dir Waves Ship Positions

Thai Dawn

Last reported at 2017-Nov-29 22:34 UTC. Time now 2017-Dec-14 04:36 UTC.
Position N 45°29' W 073°31'.
Warning: this ship's position is 14 days out of date.

Length 169 m; draft 6.1 m.

Type: Cargo ship. MMSI: 538001841.

Date/timePositionNaut miles runAvg speedWind from/ knotsBaromVisibWave heightAir tempDewpointWater temp
2017-Nov-29 22:34N 45°29' W 073°31'0 3.9
2017-Nov-29 22:30N 45°29' W 073°31'3 5.3
2017-Nov-29 21:57N 45°26' W 073°30'4 2.7
2017-Nov-29 20:34N 45°24' W 073°35'0 4.6
2017-Nov-29 20:29N 45°24' W 073°36'2 4.9
2017-Nov-29 20:00N 45°24' W 073°39'2 4.7
2017-Nov-29 19:30N 45°25' W 073°42'5 9.7
2017-Nov-29 19:00N 45°23' W 073°49'510.6
2017-Nov-29 18:30N 45°20' W 073°55'1 1.5
2017-Nov-29 18:00N 45°19' W 073°55'1 1.6
2017-Nov-29 17:30N 45°18' W 073°56'0 0.3
2017-Nov-29 17:00N 45°18' W 073°56'2 3.5
2017-Nov-29 16:30N 45°16' W 073°57'5 9.8
2017-Nov-29 16:00N 45°13' W 074°02'510.9
2017-Nov-29 15:30N 45°14' W 074°10'  
2017-Nov-26 10:21N 45°29' W 083°18'512.5
2017-Nov-26 09:57N 45°33' W 083°23'612.6
2017-Nov-26 09:29N 45°37' W 083°28'812.5
2017-Nov-26 08:52N 45°43' W 083°36'  

Dump ship's entire track history